Time;durP1;ratioP1;P1;durP2;ratioP2;P2;SDS_P1;SDS_P2;PMS_P1;PMS_P2;Temp;Humidity;BMP_temperature;BMP_pressure;BME280_temperature;BME280_humidity;BME280_pressure;Samples;Min_cycle;Max_cycle;Signal;HPM_P1;HPM_P2
2021/03/11 00:01:52;;;;;;;29.10;19.67;;;;;;;6.19;100.00;100028.41;12851158;23;20004;-75
2021/03/11 00:06:53;;;;;;;29.60;19.70;;;;;;;6.67;100.00;100096.19;12849523;23;20035;-75
2021/03/11 00:11:53;;;;;;;30.58;19.80;;;;;;;6.28;100.00;100020.94;12850791;23;20017;-75
2021/03/11 00:16:54;;;;;;;35.35;20.45;;;;;;;6.77;100.00;100058.06;12849524;23;20040;-74
2021/03/11 00:21:55;;;;;;;28.83;20.45;;;;;;;5.48;100.00;99867.38;12851141;23;20079;-74
2021/03/11 00:26:56;;;;;;;29.13;19.23;;;;;;;6.10;100.00;99928.53;12848730;23;20115;-74
2021/03/11 00:31:59;;;;;;;29.67;20.25;;;;;;;6.76;100.00;100018.88;12824212;23;20074;-74
2021/03/11 00:36:59;;;;;;;33.30;20.60;;;;;;;6.33;100.00;99942.84;12823796;23;20388;-74
2021/03/11 00:42:00;;;;;;;29.33;19.83;;;;;;;6.92;100.00;100004.63;12850558;23;20036;-75
2021/03/11 00:47:02;;;;;;;28.98;20.23;;;;;;;6.90;100.00;99985.38;12849763;23;20008;-74
2021/03/11 00:52:03;;;;;;;33.50;23.17;;;;;;;6.78;100.00;99984.41;12799285;23;20282;-75
2021/03/11 00:57:05;;;;;;;38.75;25.05;;;;;;;6.57;100.00;99930.25;12823097;23;20008;-74
2021/03/11 01:02:05;;;;;;;39.30;25.42;;;;;;;6.88;100.00;99979.59;12850319;23;20016;-74
2021/03/11 01:07:06;;;;;;;41.75;25.70;;;;;;;6.81;100.00;99966.00;12849970;23;20008;-74
2021/03/11 01:12:07;;;;;;;41.17;25.33;;;;;;;6.80;100.00;99948.31;12849234;23;20017;-74
2021/03/11 01:17:08;;;;;;;45.50;27.05;;;;;;;6.96;100.00;99935.59;12848230;23;20012;-74
2021/03/11 01:22:08;;;;;;;40.45;25.65;;;;;;;6.85;100.00;99948.84;12821512;23;20035;-73
2021/03/11 01:27:08;;;;;;;38.53;26.45;;;;;;;7.00;100.00;99914.94;12851236;23;20017;-76
2021/03/11 01:32:09;;;;;;;38.17;24.83;;;;;;;7.15;100.00;99906.00;12849445;23;20043;-76
2021/03/11 01:37:10;;;;;;;37.10;24.27;;;;;;;7.35;100.00;99911.31;12822278;23;20450;-74
2021/03/11 01:42:10;;;;;;;35.08;23.67;;;;;;;7.36;100.00;99884.06;12821274;23;20056;-74
2021/03/11 01:47:11;;;;;;;39.15;26.42;;;;;;;7.35;100.00;99860.22;12798195;23;20036;-74
2021/03/11 01:52:12;;;;;;;38.40;24.85;;;;;;;7.45;100.00;99859.59;12821854;23;20412;-75
2021/03/11 01:57:12;;;;;;;38.47;25.08;;;;;;;7.38;100.00;99828.03;12847964;23;20020;-75
2021/03/11 02:02:13;;;;;;;37.70;25.95;;;;;;;7.50;100.00;99818.97;12822971;23;20108;-74
2021/03/11 02:07:14;;;;;;;36.22;24.75;;;;;;;7.44;100.00;99804.28;12795688;23;20050;-74
2021/03/11 02:12:32;;;;;;;42.45;25.13;;;;;;;7.67;100.00;99822.28;12848444;23;20203;-75
2021/03/11 02:18:07;;;;;;;34.88;23.75;;;;;;;7.70;100.00;99789.25;12847752;23;20008;-75
2021/03/11 02:23:32;;;;;;;35.67;22.52;;;;;;;7.76;100.00;99782.41;12823080;23;20012;-75
2021/03/11 02:28:51;;;;;;;31.73;21.70;;;;;;;7.83;100.00;99782.47;12824149;23;20130;-75
2021/03/11 02:33:53;;;;;;;37.40;21.17;;;;;;;7.76;100.00;99756.28;12848242;23;20017;-75
2021/03/11 02:38:55;;;;;;;33.65;21.05;;;;;;;7.54;100.00;99674.56;12844845;23;20008;-74
2021/03/11 02:43:55;;;;;;;31.33;20.63;;;;;;;7.92;100.00;99717.63;12845939;23;20008;-74
2021/03/11 02:48:56;;;;;;;28.75;18.80;;;;;;;8.14;100.00;99700.56;12847178;23;20020;-74
2021/03/11 02:53:57;;;;;;;22.85;16.35;;;;;;;8.22;100.00;99677.19;12843912;23;20020;-74
2021/03/11 02:58:58;;;;;;;23.95;16.92;;;;;;;8.42;100.00;99689.31;12846818;23;20012;-74
2021/03/11 03:03:59;;;;;;;21.45;14.75;;;;;;;8.35;100.00;99630.00;12847657;23;20016;-74
2021/03/11 03:09:00;;;;;;;20.05;15.07;;;;;;;8.64;100.00;99632.91;12845776;23;20562;-75
2021/03/11 03:14:01;;;;;;;17.60;13.63;;;;;;;8.68;100.00;99652.56;12843465;23;20008;-75
2021/03/11 03:19:02;;;;;;;18.27;14.23;;;;;;;8.29;100.00;99604.53;12820717;23;20012;-75
2021/03/11 03:24:02;;;;;;;19.95;13.15;;;;;;;8.70;100.00;99634.09;12851982;23;20095;-75
2021/03/11 03:29:04;;;;;;;17.17;12.57;;;;;;;8.41;100.00;99590.81;12849380;23;20021;-75
2021/03/11 03:34:04;;;;;;;21.00;12.68;;;;;;;8.82;100.00;99614.94;12848894;23;20391;-74
2021/03/11 03:39:05;;;;;;;17.67;11.75;;;;;;;8.50;100.00;99527.78;12850498;23;20019;-74
2021/03/11 03:44:06;;;;;;;17.52;10.85;;;;;;;8.86;100.00;99551.03;12824816;23;20044;-74
2021/03/11 03:49:09;;;;;;;14.00;10.85;;;;;;;8.72;100.00;99507.84;12823676;23;20005;-76
2021/03/11 03:54:21;;;;;;;16.83;10.57;;;;;;;8.86;100.00;99540.25;12849442;23;20017;-76
2021/03/11 03:59:25;;;;;;;14.73;9.93;;;;;;;8.98;100.00;99541.06;12822755;23;20000;-74
2021/03/11 04:04:27;;;;;;;14.73;9.80;;;;;;;9.00;100.00;99549.56;12823684;23;20008;-74
2021/03/11 04:09:29;;;;;;;14.07;10.07;;;;;;;8.99;100.00;99553.41;12849877;23;20055;-75
2021/03/11 04:14:31;;;;;;;14.98;9.35;;;;;;;9.07;100.00;99533.41;12823635;23;20015;-76
2021/03/11 04:19:34;;;;;;;15.43;9.57;;;;;;;9.21;100.00;99533.44;12823225;23;20013;-75
2021/03/11 04:24:37;;;;;;;11.63;8.48;;;;;;;8.76;100.00;99449.38;12821782;23;20015;-74
2021/03/11 04:29:38;;;;;;;13.20;8.60;;;;;;;9.31;100.00;99499.56;12815724;23;20023;-74
2021/03/11 04:34:41;;;;;;;10.98;8.57;;;;;;;9.21;100.00;99457.19;12848040;23;20304;-76
2021/03/11 04:39:42;;;;;;;13.10;7.60;;;;;;;9.54;100.00;99496.50;12823599;23;20001;-76
2021/03/11 04:44:43;;;;;;;10.60;7.72;;;;;;;9.54;100.00;99480.31;12849862;23;20016;-74
2021/03/11 04:49:43;;;;;;;14.35;8.02;;;;;;;9.52;100.00;99493.41;12823111;23;20009;-74
2021/03/11 04:54:44;;;;;;;14.82;8.50;;;;;;;9.57;100.00;99517.34;12848141;23;20031;-75
2021/03/11 04:59:44;;;;;;;18.17;8.93;;;;;;;9.12;100.00;99409.00;12847133;23;20005;-74
2021/03/11 05:04:45;;;;;;;12.23;8.02;;;;;;;9.66;100.00;99455.66;12850746;23;20136;-75
2021/03/11 05:09:45;;;;;;;10.70;6.60;;;;;;;9.83;100.00;99450.63;12850220;23;20043;-75
2021/03/11 05:14:46;;;;;;;12.98;6.78;;;;;;;9.85;100.00;99446.38;12846857;23;20478;-77
2021/03/11 05:19:46;;;;;;;12.35;6.10;;;;;;;9.53;100.00;99392.47;12850564;23;20392;-76
2021/03/11 05:24:47;;;;;;;11.60;6.50;;;;;;;9.89;100.00;99424.78;12851012;23;20370;-77
2021/03/11 05:29:47;;;;;;;14.20;6.10;;;;;;;9.95;100.00;99417.84;12850638;23;20024;-77
2021/03/11 05:34:48;;;;;;;11.65;5.55;;;;;;;10.05;100.00;99433.25;12797949;23;20013;-77
2021/03/11 05:39:50;;;;;;;10.98;4.80;;;;;;;9.87;100.00;99416.31;12798481;23;20015;-76
2021/03/11 05:44:52;;;;;;;10.05;4.88;;;;;;;10.04;100.00;99420.91;12847619;23;20132;-76
2021/03/11 05:49:54;;;;;;;10.37;5.47;;;;;;;10.22;100.00;99426.25;12798045;23;20013;-77
2021/03/11 05:54:54;;;;;;;7.72;4.22;;;;;;;10.21;100.00;99423.97;12796817;23;20047;-77
2021/03/11 05:59:55;;;;;;;8.80;4.70;;;;;;;10.04;100.00;99437.13;12796988;23;20221;-77
2021/03/11 06:04:56;;;;;;;8.90;4.78;;;;;;;10.01;100.00;99454.06;12848539;23;20023;-77
2021/03/11 06:10:05;;;;;;;7.25;4.05;;;;;;;9.47;100.00;99345.44;12821670;23;20013;-77
2021/03/11 06:15:10;;;;;;;9.50;4.18;;;;;;;9.94;100.00;99448.69;12819524;23;20004;-77
2021/03/11 06:20:11;;;;;;;11.90;3.88;;;;;;;9.64;100.00;99392.44;12822161;23;20293;-77
2021/03/11 06:25:12;;;;;;;10.00;3.17;;;;;;;9.60;100.00;99376.28;12845913;23;20351;-77
2021/03/11 06:30:35;;;;;;;15.15;3.70;;;;;;;9.93;100.00;99420.94;12795560;23;20028;-76
2021/03/11 06:35:41;;;;;;;17.80;3.63;;;;;;;9.98;100.00;99465.66;12848532;23;20052;-77
2021/03/11 06:40:53;;;;;;;21.15;3.50;;;;;;;9.66;96.68;99380.09;12822465;23;20028;-78
2021/03/11 06:46:04;;;;;;;24.42;5.10;;;;;;;9.90;96.59;99415.53;12823243;23;20328;-76
2021/03/11 06:51:16;;;;;;;27.27;5.00;;;;;;;9.60;94.28;99364.72;12797194;23;20008;-76
2021/03/11 06:56:18;;;;;;;24.00;4.63;;;;;;;9.98;95.15;99416.28;12819138;23;20013;-78
2021/03/11 07:01:22;;;;;;;17.05;4.25;;;;;;;10.02;96.21;99401.63;12821693;23;20040;-79
2021/03/11 07:06:33;;;;;;;21.27;4.25;;;;;;;9.41;95.44;99298.47;12820820;23;20009;-77
2021/03/11 07:11:34;;;;;;;17.70;3.67;;;;;;;10.27;94.22;99411.56;12847305;23;20015;-77
2021/03/11 07:16:34;;;;;;;22.88;4.63;;;;;;;10.27;94.37;99401.53;12847997;23;20091;-78
2021/03/11 07:21:41;;;;;;;21.83;4.00;;;;;;;10.37;95.17;99421.59;12847279;23;20016;-78
2021/03/11 07:27:00;;;;;;;20.67;3.75;;;;;;;10.08;94.55;99389.25;12823671;23;20087;-77
2021/03/11 07:32:05;;;;;;;28.80;4.88;;;;;;;10.30;95.18;99383.81;12794036;23;20440;-77
2021/03/11 07:37:05;;;;;;;21.42;3.70;;;;;;;10.37;95.66;99416.19;12819230;23;20112;-77
2021/03/11 07:42:07;;;;;;;21.25;4.65;;;;;;;10.42;89.36;99385.28;12820013;23;20838;-78
2021/03/11 07:47:09;;;;;;;26.05;5.43;;;;;;;10.66;88.71;99391.75;12816231;23;20127;-76
2021/03/11 07:52:09;;;;;;;26.75;4.95;;;;;;;10.33;86.67;99361.44;12822648;23;20012;-77
2021/03/11 07:57:12;;;;;;;24.98;5.88;;;;;;;10.78;84.58;99396.69;12822808;23;20091;-78
2021/03/11 08:02:15;;;;;;;42.63;7.07;;;;;;;10.79;83.36;99398.22;12798097;23;20078;-77
2021/03/11 08:07:25;;;;;;;44.22;7.60;;;;;;;10.93;82.56;99435.97;12823876;23;20271;-78
2021/03/11 08:12:26;;;;;;;46.08;7.60;;;;;;;11.02;82.08;99437.50;12824238;23;20360;-78
2021/03/11 08:17:33;;;;;;;33.78;7.60;;;;;;;11.05;82.59;99399.59;12799962;23;20412;-79
2021/03/11 08:22:52;;;;;;;42.58;8.13;;;;;;;10.86;81.61;99419.81;12852356;23;20459;-79
2021/03/11 08:27:53;;;;;;;47.97;7.88;;;;;;;10.91;79.30;99403.19;12880195;23;20454;-79
2021/03/11 08:32:53;;;;;;;36.08;6.78;;;;;;;11.17;77.44;99428.09;12915736;23;20020;-76
2021/03/11 08:37:57;;;;;;;34.05;6.43;;;;;;;10.86;75.71;99357.63;12914776;23;20594;-79
2021/03/11 08:42:57;;;;;;;42.20;8.50;;;;;;;11.26;76.33;99404.09;12887625;23;20067;-76
2021/03/11 08:48:15;;;;;;;39.72;7.25;;;;;;;11.48;72.64;99360.63;12834958;23;20004;-76
2021/03/11 08:53:37;;;;;;;32.70;7.10;;;;;;;12.27;70.49;99399.28;12913215;23;20004;-81
2021/03/11 08:58:49;;;;;;;30.95;5.53;;;;;;;11.79;71.35;99408.25;12910359;23;20012;-76
2021/03/11 09:03:50;;;;;;;38.80;8.85;;;;;;;11.05;73.72;99382.59;12912200;23;20439;-75
2021/03/11 09:08:54;;;;;;;45.63;7.15;;;;;;;11.39;72.80;99424.09;12912066;23;20012;-75
2021/03/11 09:13:55;;;;;;;42.28;8.20;;;;;;;11.50;73.47;99450.28;12884710;23;20082;-75
2021/03/11 09:18:59;;;;;;;31.85;6.63;;;;;;;11.12;73.06;99393.38;12911378;23;20035;-77
2021/03/11 09:23:59;;;;;;;35.50;6.97;;;;;;;11.34;74.04;99435.34;12860916;23;20439;-77
2021/03/11 09:29:01;;;;;;;39.85;6.88;;;;;;;11.04;72.94;99378.38;12876438;23;20023;-79
2021/03/11 09:34:02;;;;;;;36.90;6.85;;;;;;;11.20;73.37;99430.03;12822942;23;20017;-78
2021/03/11 09:39:04;;;;;;;41.95;8.65;;;;;;;11.24;73.91;99444.31;12848836;23;20124;-77
2021/03/11 09:44:08;;;;;;;;;;;;;;;11.47;74.08;99467.31;12849835;23;20332;-77
2021/03/11 09:49:09;;;;;;;35.55;7.10;;;;;;;11.46;73.45;99487.44;12847808;23;20323;-78
2021/03/11 09:54:10;;;;;;;44.03;7.95;;;;;;;11.77;72.76;99464.75;12822691;23;20044;-77
2021/03/11 09:59:14;;;;;;;35.50;7.22;;;;;;;11.96;71.70;99443.72;12796975;23;20036;-79
2021/03/11 10:04:24;;;;;;;44.65;9.18;;;;;;;11.47;72.99;99413.19;12748888;23;20099;-77
2021/03/11 10:09:34;;;;;;;43.97;8.43;;;;;;;11.55;73.76;99452.59;12848672;23;20312;-76
2021/03/11 10:14:35;;;;;;;37.60;6.53;;;;;;;12.04;70.79;99499.34;12822834;23;20009;-76
2021/03/11 10:19:36;;;;;;;41.30;7.10;;;;;;;11.67;71.41;99487.28;12821682;23;20004;-76
2021/03/11 10:24:39;;;;;;;49.05;7.70;;;;;;;10.72;71.51;99360.44;12819521;23;20040;-80
2021/03/11 10:29:40;;;;;;;37.00;8.30;;;;;;;11.85;72.87;99555.59;12847813;23;20012;-78
2021/03/11 10:34:45;;;;;;;39.75;6.75;;;;;;;12.27;70.40;99544.78;12848891;23;20008;-81
2021/03/11 10:39:59;;;;;;;40.70;9.13;;;;;;;12.48;70.55;99565.50;12821798;23;20042;-78
2021/03/11 10:45:03;;;;;;;31.08;6.05;;;;;;;12.63;69.63;99550.63;12847497;23;20000;-78
2021/03/11 10:50:18;;;;;;;42.65;7.97;;;;;;;12.37;70.05;99564.81;12847757;23;20022;-78
2021/03/11 10:55:33;;;;;;;30.67;6.80;;;;;;;11.98;70.31;99555.13;12796750;23;20019;-79
2021/03/11 11:00:35;;;;;;;32.08;6.45;;;;;;;12.11;69.17;99568.94;12796582;23;20428;-81
2021/03/11 11:05:36;;;;;;;33.25;7.53;;;;;;;12.54;69.64;99588.28;12795720;23;20008;-75
2021/03/11 11:10:37;;;;;;;32.10;6.30;;;;;;;12.53;69.57;99594.88;12846528;23;20116;-75
2021/03/11 11:15:37;;;;;;;37.33;6.40;;;;;;;12.75;68.65;99594.69;12847863;23;20058;-75
2021/03/11 11:20:38;;;;;;;38.95;7.00;;;;;;;12.61;68.87;99601.78;12797014;23;20490;-75
2021/03/11 11:25:38;;;;;;;34.88;6.40;;;;;;;12.77;68.73;99603.16;12850254;23;20439;-75
2021/03/11 11:30:39;;;;;;;31.90;7.25;;;;;;;12.74;69.57;99621.00;12849950;23;20013;-74
2021/03/11 11:35:40;;;;;;;37.85;8.90;;;;;;;12.22;68.55;99532.47;12821300;23;20320;-73
2021/03/11 11:40:40;;;;;;;42.38;7.88;;;;;;;12.50;68.92;99636.34;12847354;23;20009;-74
2021/03/11 11:45:41;;;;;;;33.80;7.10;;;;;;;11.53;70.89;99563.16;12851280;23;20031;-74
2021/03/11 11:50:42;;;;;;;34.97;8.05;;;;;;;11.91;71.31;99625.59;12824882;23;20109;-73
2021/03/11 11:55:42;;;;;;;38.15;7.93;;;;;;;12.19;70.10;99647.06;12822948;23;20384;-73
2021/03/11 12:00:43;;;;;;;31.20;6.50;;;;;;;12.00;70.46;99650.28;12823948;23;20102;-74
2021/03/11 12:05:44;;;;;;;41.42;6.75;;;;;;;12.14;70.76;99650.19;12850922;23;20035;-73
2021/03/11 12:10:45;;;;;;;33.92;5.85;;;;;;;12.61;68.59;99683.09;12848680;23;20005;-73
2021/03/11 12:15:45;;;;;;;29.20;5.60;;;;;;;12.51;68.62;99667.72;12819355;23;20005;-74
2021/03/11 12:20:46;;;;;;;41.83;6.65;;;;;;;12.61;70.05;99688.53;12844778;23;20099;-75
2021/03/11 12:25:46;;;;;;;27.80;5.72;;;;;;;12.16;69.67;99619.97;12845967;23;20020;-75
2021/03/11 12:30:47;;;;;;;35.20;6.15;;;;;;;12.91;68.41;99673.53;12837218;23;20454;-75
2021/03/11 12:35:47;;;;;;;37.85;7.30;;;;;;;12.15;68.61;99613.78;12845551;23;20017;-76
2021/03/11 12:40:48;;;;;;;29.38;5.93;;;;;;;12.91;68.23;99673.53;12843386;23;20016;-76
2021/03/11 12:45:49;;;;;;;31.48;5.70;;;;;;;12.50;66.04;99574.00;12846909;23;20023;-75
2021/03/11 12:50:49;;;;;;;27.55;5.72;;;;;;;13.01;65.17;99629.25;12847013;23;20012;-75
2021/03/11 12:55:50;;;;;;;26.38;6.40;;;;;;;13.60;63.85;99692.56;12845113;23;20005;-75
2021/03/11 13:00:51;;;;;;;24.50;5.38;;;;;;;13.47;64.42;99687.66;12846035;23;20044;-75
2021/03/11 13:05:56;;;;;;;31.02;5.63;;;;;;;13.21;65.34;99691.03;12846732;23;20031;-74
2021/03/11 13:10:57;;;;;;;32.03;5.80;;;;;;;13.53;64.27;99706.97;12845079;23;20504;-75
2021/03/11 13:15:57;;;;;;;19.00;4.32;;;;;;;13.59;62.57;99704.56;12845447;23;20024;-73
2021/03/11 13:20:58;;;;;;;25.38;5.65;;;;;;;13.37;62.84;99709.50;12846628;23;20539;-74
2021/03/11 13:25:59;;;;;;;30.00;4.38;;;;;;;13.19;62.21;99731.38;12843081;23;20008;-74
2021/03/11 13:30:59;;;;;;;29.45;4.35;;;;;;;13.10;60.61;99708.22;12844886;23;20086;-75
2021/03/11 13:36:00;;;;;;;30.90;4.65;;;;;;;13.00;61.67;99727.28;12819738;23;20783;-74
2021/03/11 13:41:00;;;;;;;21.85;5.50;;;;;;;12.36;62.14;99595.81;12844206;23;20057;-75
2021/03/11 13:46:01;;;;;;;22.40;4.63;;;;;;;13.10;62.45;99719.06;12845101;23;20039;-79
2021/03/11 13:51:02;;;;;;;28.70;4.75;;;;;;;13.14;62.18;99718.25;12794917;23;20016;-75
2021/03/11 13:56:02;;;;;;;28.95;4.55;;;;;;;13.01;62.31;99726.91;12771241;23;20013;-74
2021/03/11 14:01:03;;;;;;;30.95;5.40;;;;;;;12.63;63.84;99702.47;12820710;23;20009;-75
2021/03/11 14:06:04;;;;;;;25.52;5.53;;;;;;;12.61;65.21;99734.63;12820977;23;20008;-75
2021/03/11 14:11:04;;;;;;;30.73;4.57;;;;;;;12.83;64.18;99720.88;12820063;23;20020;-75
2021/03/11 14:16:08;;;;;;;29.42;5.03;;;;;;;12.65;63.96;99694.69;12795536;23;20040;-75
2021/03/11 14:21:08;;;;;;;28.48;4.60;;;;;;;12.71;64.03;99707.81;12847392;23;20008;-75
2021/03/11 14:26:09;;;;;;;20.50;5.05;;;;;;;12.99;63.87;99750.94;12846937;23;20039;-76
2021/03/11 14:31:10;;;;;;;30.45;4.75;;;;;;;12.33;66.27;99764.63;12841690;23;20027;-76
2021/03/11 14:36:11;;;;;;;31.75;6.43;;;;;;;12.20;65.60;99723.66;12847402;23;20079;-76
2021/03/11 14:41:11;;;;;;;25.60;4.95;;;;;;;12.02;67.30;99729.22;12844238;23;20062;-74
2021/03/11 14:46:12;;;;;;;22.55;4.60;;;;;;;12.02;66.38;99783.38;12847476;23;20510;-74
2021/03/11 14:51:17;;;;;;;25.58;3.42;;;;;;;12.41;63.32;99744.44;12847331;23;20009;-75
2021/03/11 14:56:20;;;;;;;22.38;3.55;;;;;;;12.33;64.30;99776.25;12844839;23;20071;-74
2021/03/11 15:01:21;;;;;;;16.63;3.33;;;;;;;12.13;63.39;99770.53;12794342;23;20265;-74
2021/03/11 15:06:21;;;;;;;21.45;3.50;;;;;;;11.71;65.34;99704.59;12846787;23;20088;-77
2021/03/11 15:11:22;;;;;;;33.20;6.10;;;;;;;11.79;66.39;99808.97;12845271;23;20399;-75
2021/03/11 15:16:25;;;;;;;36.00;6.13;;;;;;;11.26;69.56;99820.69;12848864;23;20331;-77
2021/03/11 15:21:25;;;;;;;42.33;5.13;;;;;;;10.35;70.82;99775.09;12851930;23;20082;-77
2021/03/11 15:26:26;;;;;;;15.10;2.53;;;;;;;10.06;77.32;99877.56;12847979;23;20610;-75
2021/03/11 15:31:26;;;;;;;8.93;1.42;;;;;;;8.84;83.51;99800.47;12821734;23;20028;-76
2021/03/11 15:36:27;;;;;;;11.40;1.77;;;;;;;8.81;87.06;99869.38;12826117;23;20015;-76
2021/03/11 15:41:27;;;;;;;2.30;0.47;;;;;;;8.10;88.52;99758.19;12850432;23;20076;-76
2021/03/11 15:46:28;;;;;;;2.55;0.52;;;;;;;8.14;90.96;99797.47;12820730;23;20024;-77
2021/03/11 15:51:29;;;;;;;11.07;1.38;;;;;;;7.68;95.36;99732.34;12845966;23;20035;-76
2021/03/11 15:56:29;;;;;;;12.93;1.70;;;;;;;8.33;97.45;99815.38;12847117;23;20044;-78
2021/03/11 16:01:32;;;;;;;13.75;2.05;;;;;;;8.54;96.36;99830.25;12844875;23;20538;-77
2021/03/11 16:06:35;;;;;;;14.55;2.50;;;;;;;8.19;95.46;99789.06;12820873;23;20505;-79
2021/03/11 16:11:36;;;;;;;24.75;4.13;;;;;;;8.74;94.59;99807.31;12820310;23;20017;-78
2021/03/11 16:16:36;;;;;;;38.05;6.22;;;;;;;8.85;92.77;99851.31;12770906;23;20043;-84
2021/03/11 16:21:37;;;;;;;13.48;3.03;;;;;;;8.74;87.10;99775.00;12816735;23;20016;-79
2021/03/11 16:26:37;;;;;;;18.63;3.40;;;;;;;9.08;91.17;99820.72;12817254;23;20035;-79
2021/03/11 16:31:38;;;;;;;24.92;4.90;;;;;;;8.34;91.44;99714.59;12830986;23;20191;-81
2021/03/11 16:36:39;;;;;;;32.90;4.00;;;;;;;9.00;88.14;99797.53;12813610;23;20017;-79
2021/03/11 16:41:40;;;;;;;22.50;2.80;;;;;;;9.45;80.36;99831.38;12767027;23;20716;-79
2021/03/11 16:46:46;;;;;;;20.95;3.63;;;;;;;9.46;80.67;99834.84;12840642;23;20008;-80
2021/03/11 16:51:46;;;;;;;16.48;3.55;;;;;;;9.48;81.60;99843.34;12811831;23;20008;-80
2021/03/11 16:56:47;;;;;;;17.95;3.42;;;;;;;9.00;81.49;99762.50;12814773;23;20028;-79
2021/03/11 17:01:48;;;;;;;12.90;3.15;;;;;;;9.18;80.50;99809.22;12788708;23;20040;-78
2021/03/11 17:06:48;;;;;;;18.65;4.20;;;;;;;9.23;81.81;99806.19;12815973;23;20035;-78
2021/03/11 17:11:49;;;;;;;20.23;3.17;;;;;;;9.42;80.86;99858.31;12843289;23;20370;-76
2021/03/11 17:16:49;;;;;;;14.38;2.78;;;;;;;9.00;80.92;99802.91;12841111;23;20032;-76
2021/03/11 17:21:49;;;;;;;18.42;2.65;;;;;;;9.02;79.38;99843.75;12843132;23;20014;-76
2021/03/11 17:26:50;;;;;;;17.05;3.25;;;;;;;8.57;79.32;99764.84;12815600;23;20393;-77
2021/03/11 17:31:51;;;;;;;24.55;4.07;;;;;;;9.13;80.21;99855.41;12813087;23;20278;-78
2021/03/11 17:36:51;;;;;;;24.63;2.97;;;;;;;8.73;80.82;99843.50;12817383;23;20016;-77
2021/03/11 17:41:52;;;;;;;11.40;2.78;;;;;;;8.80;84.42;99919.03;12841542;23;20154;-78
2021/03/11 17:46:52;;;;;;;21.63;3.20;;;;;;;8.33;85.41;99857.69;12843569;23;20019;-75
2021/03/11 17:51:52;;;;;;;21.77;4.38;;;;;;;8.50;86.00;99956.03;12815646;23;20059;-76
2021/03/11 17:56:53;;;;;;;26.00;3.70;;;;;;;8.13;86.75;99881.28;12841989;23;20112;-78
2021/03/11 18:01:53;;;;;;;27.60;3.75;;;;;;;8.39;86.51;99916.22;12838839;23;20084;-77
2021/03/11 18:06:54;;;;;;;26.63;3.97;;;;;;;8.14;87.82;99904.38;12842065;23;20015;-76
2021/03/11 18:11:54;;;;;;;20.88;3.58;;;;;;;8.30;87.20;99945.38;12816704;23;20008;-76
2021/03/11 18:16:55;;;;;;;13.93;2.25;;;;;;;7.89;84.82;99918.25;12815073;23;20100;-75
2021/03/11 18:21:55;;;;;;;8.07;1.00;;;;;;;7.88;83.22;99957.09;12813959;23;20011;-77
2021/03/11 18:26:56;;;;;;;6.43;1.23;;;;;;;7.71;84.64;99968.34;12843097;23;20020;-75
2021/03/11 18:31:57;;;;;;;3.20;0.70;;;;;;;7.24;84.45;99923.78;12841211;23;20550;-75
2021/03/11 18:36:57;;;;;;;6.47;1.10;;;;;;;7.43;84.99;99985.56;12789519;23;20036;-74
2021/03/11 18:41:58;;;;;;;9.13;1.17;;;;;;;7.31;86.52;100004.56;12790169;23;20004;-77
2021/03/11 18:46:58;;;;;;;6.20;1.55;;;;;;;7.24;88.54;100020.56;12814703;23;20013;-79
2021/03/11 18:51:59;;;;;;;6.45;1.25;;;;;;;7.11;91.28;100001.91;12839166;23;20005;-76
2021/03/11 18:57:21;;;;;;;16.90;2.13;;;;;;;7.20;93.74;99994.41;12840281;23;20470;-75
2021/03/11 19:02:21;;;;;;;19.92;3.67;;;;;;;6.85;95.06;99940.00;12819243;23;20009;-77
2021/03/11 19:07:22;;;;;;;17.83;2.28;;;;;;;7.06;96.01;99983.38;12840532;23;20487;-78
2021/03/11 19:12:22;;;;;;;17.83;2.80;;;;;;;7.25;96.76;100017.53;12840847;23;20032;-77
2021/03/11 19:17:23;;;;;;;19.92;3.63;;;;;;;6.88;97.22;99966.91;12842328;23;20383;-78
2021/03/11 19:22:23;;;;;;;13.15;2.88;;;;;;;7.06;97.85;100002.19;12814102;23;20474;-76
2021/03/11 19:27:26;;;;;;;17.75;2.70;;;;;;;6.86;98.28;99963.03;12841504;23;20051;-77
2021/03/11 19:32:27;;;;;;;15.75;2.63;;;;;;;7.09;100.00;100014.16;12843391;23;20446;-75
2021/03/11 19:37:27;;;;;;;15.93;3.80;;;;;;;7.07;100.00;100025.25;12815702;23;20040;-76
2021/03/11 19:42:28;;;;;;;20.55;3.70;;;;;;;7.19;100.00;100024.31;12815864;23;20001;-77
2021/03/11 19:47:29;;;;;;;17.42;3.22;;;;;;;6.36;100.00;99901.09;12842454;23;20012;-75
2021/03/11 19:52:30;;;;;;;15.18;2.53;;;;;;;7.57;95.28;100039.63;12841221;23;20001;-76
2021/03/11 19:57:30;;;;;;;19.10;3.80;;;;;;;7.74;95.91;100037.59;12813410;23;20104;-76
2021/03/11 20:02:32;;;;;;;16.35;3.22;;;;;;;7.47;95.04;100002.53;12817415;23;20013;-75
2021/03/11 20:07:33;;;;;;;14.75;3.05;;;;;;;7.05;91.53;99954.94;12843172;23;20040;-75
2021/03/11 20:12:34;;;;;;;22.30;3.00;;;;;;;7.63;90.61;100048.91;12843000;23;20084;-75
2021/03/11 20:17:35;;;;;;;21.85;3.45;;;;;;;7.11;90.25;100001.13;12815793;23;20393;-76
2021/03/11 20:22:36;;;;;;;14.18;2.50;;;;;;;7.27;91.10;100046.75;12818076;23;20004;-76
2021/03/11 20:27:37;;;;;;;27.17;4.97;;;;;;;7.02;92.29;100025.53;12844172;23;20025;-76
2021/03/11 20:32:37;;;;;;;23.15;2.95;;;;;;;7.14;92.31;100060.31;12794332;23;20511;-75
2021/03/11 20:37:39;;;;;;;16.83;3.25;;;;;;;7.29;92.11;100093.66;12818274;23;20005;-75
2021/03/11 20:42:41;;;;;;;17.80;3.37;;;;;;;7.33;92.84;100093.69;12845034;23;20059;-77
2021/03/11 20:47:42;;;;;;;26.00;3.72;;;;;;;7.20;92.62;100096.53;12843392;23;20016;-75
2021/03/11 20:52:42;;;;;;;11.38;2.70;;;;;;;7.24;93.27;100101.19;12843751;23;20087;-77
2021/03/11 20:57:43;;;;;;;26.10;3.72;;;;;;;6.89;93.26;100067.09;12815856;23;20024;-77
2021/03/11 21:02:43;;;;;;;18.77;3.05;;;;;;;6.82;93.82;100075.00;12843099;23;20008;-76
2021/03/11 21:07:45;;;;;;;15.70;3.58;;;;;;;6.78;93.54;100069.56;12816737;23;20004;-77
2021/03/11 21:12:46;;;;;;;14.80;2.97;;;;;;;7.25;93.41;100145.78;12814698;23;20552;-75
2021/03/11 21:17:47;;;;;;;19.88;3.30;;;;;;;6.99;92.56;100122.97;12815694;23;20004;-75
2021/03/11 21:22:49;;;;;;;22.70;3.63;;;;;;;7.24;92.22;100168.41;12791386;23;20009;-75
2021/03/11 21:27:50;;;;;;;16.55;3.53;;;;;;;7.32;91.72;100173.59;12844672;23;20016;-75
2021/03/11 21:32:52;;;;;;;20.58;3.08;;;;;;;6.96;91.67;100135.22;12843433;23;20366;-76
2021/03/11 21:37:53;;;;;;;19.23;3.15;;;;;;;6.75;91.84;100124.78;12840767;23;20001;-75
2021/03/11 21:42:54;;;;;;;15.25;2.60;;;;;;;7.08;91.62;100201.50;12816320;23;20368;-76
2021/03/11 21:47:55;;;;;;;16.48;2.55;;;;;;;6.87;91.12;100163.41;12842309;23;20016;-75
2021/03/11 21:52:56;;;;;;;18.40;2.90;;;;;;;7.18;91.24;100233.19;12843242;23;20012;-75
2021/03/11 21:57:57;;;;;;;24.77;3.08;;;;;;;7.12;92.51;100228.44;12817335;23;20074;-76
2021/03/11 22:02:59;;;;;;;18.80;2.53;;;;;;;6.65;92.88;100168.28;12815392;23;20008;-75
2021/03/11 22:08:01;;;;;;;9.43;2.67;;;;;;;7.03;92.74;100252.84;12814075;23;20095;-75
2021/03/11 22:13:03;;;;;;;20.40;2.83;;;;;;;6.94;92.44;100233.44;12841326;23;20056;-75
2021/03/11 22:18:05;;;;;;;16.27;2.83;;;;;;;7.13;93.05;100256.91;12816619;23;20036;-75
2021/03/11 22:23:05;;;;;;;29.75;3.85;;;;;;;7.16;92.87;100267.72;12841248;23;20013;-74
2021/03/11 22:28:06;;;;;;;16.70;2.53;;;;;;;6.86;94.15;100226.31;12840378;23;20042;-76
2021/03/11 22:33:08;;;;;;;15.93;2.90;;;;;;;7.07;94.69;100279.78;12815288;23;20008;-75
2021/03/11 22:38:10;;;;;;;22.88;4.38;;;;;;;6.91;94.35;100271.72;12839720;23;20009;-76
2021/03/11 22:43:11;;;;;;;17.95;2.63;;;;;;;6.90;94.37;100297.03;12816477;23;20072;-76
2021/03/11 22:48:11;;;;;;;22.60;3.85;;;;;;;6.83;95.21;100304.94;12814976;23;20428;-75
2021/03/11 22:53:12;;;;;;;18.08;3.35;;;;;;;6.61;95.38;100274.06;12815027;23;20012;-75
2021/03/11 22:58:12;;;;;;;15.20;2.17;;;;;;;6.59;94.92;100271.72;12816546;23;20001;-76
2021/03/11 23:03:16;;;;;;;12.38;2.53;;;;;;;6.63;93.96;100272.63;12815017;23;20344;-75
2021/03/11 23:08:17;;;;;;;13.57;2.20;;;;;;;6.55;94.08;100270.84;12818200;23;20024;-76